Time;durP1;ratioP1;P1;durP2;ratioP2;P2;SDS_P1;SDS_P2;PMS_P1;PMS_P2;Temp;Humidity;BMP_temperature;BMP_pressure;BME280_temperature;BME280_humidity;BME280_pressure;Samples;Min_cycle;Max_cycle;Signal;HPM_P1;HPM_P2
2022/01/01 00:00:41;;;;;;;47.07;20.23;;;11.40;99.90;;;;;;5092437;27;20039;-86
2022/01/01 00:03:07;;;;;;;45.40;20.17;;;11.40;99.90;;;;;;5082501;27;20130;-86
2022/01/01 00:05:33;;;;;;;49.47;20.33;;;11.40;99.90;;;;;;5090948;27;20047;-86
2022/01/01 00:08:01;;;;;;;43.30;21.37;;;11.40;99.90;;;;;;5068988;27;20047;-88
2022/01/01 00:10:26;;;;;;;47.50;21.33;;;11.40;99.90;;;;;;5056936;27;20314;-87
2022/01/01 00:12:52;;;;;;;59.13;23.20;;;11.40;99.90;;;;;;5107574;27;20418;-87
2022/01/01 00:15:19;;;;;;;56.93;25.07;;;11.40;99.90;;;;;;5071136;28;20184;-87
2022/01/01 00:17:45;;;;;;;54.83;25.33;;;11.40;99.90;;;;;;5081405;28;20039;-87
2022/01/01 00:20:12;;;;;;;59.03;25.07;;;11.40;99.90;;;;;;5081719;27;20126;-86
2022/01/01 00:22:39;;;;;;;58.97;26.37;;;11.40;99.90;;;;;;5109213;27;20058;-86
2022/01/01 00:25:06;;;;;;;59.20;25.17;;;11.40;99.90;;;;;;5103957;28;20077;-86
2022/01/01 00:27:34;;;;;;;70.87;27.07;;;11.40;99.90;;;;;;5069639;28;20065;-86
2022/01/01 00:30:01;;;;;;;58.73;27.47;;;11.40;99.90;;;;;;5092764;28;20534;-86
2022/01/01 00:32:26;;;;;;;62.60;27.87;;;11.40;99.90;;;;;;5074483;27;20524;-85
2022/01/01 00:34:52;;;;;;;61.70;26.33;;;11.40;99.90;;;;;;5101369;27;20062;-82
2022/01/01 00:37:19;;;;;;;67.43;27.03;;;11.40;99.90;;;;;;5069833;27;20047;-84
2022/01/01 00:39:45;;;;;;;68.60;28.93;;;11.40;99.90;;;;;;5100401;27;20039;-83
2022/01/01 00:42:10;;;;;;;53.43;26.97;;;11.40;99.90;;;;;;5096809;28;20054;-84
2022/01/01 00:44:36;;;;;;;66.30;27.30;;;11.40;99.90;;;;;;5080346;28;20051;-83
2022/01/01 00:47:03;;;;;;;62.83;26.97;;;11.40;99.90;;;;;;5084740;27;20050;-82
2022/01/01 00:49:29;;;;;;;53.20;24.07;;;11.40;99.90;;;;;;5088373;27;20514;-83
2022/01/01 00:51:55;;;;;;;54.70;23.93;;;11.40;99.90;;;;;;5082214;28;20043;-84
2022/01/01 00:54:21;;;;;;;58.93;25.50;;;11.40;99.90;;;;;;5091132;28;20050;-84
2022/01/01 00:56:47;;;;;;;53.63;23.57;;;11.40;99.90;;;;;;5098227;28;20047;-84
2022/01/01 00:59:15;;;;;;;47.90;23.00;;;11.40;99.90;;;;;;5114565;27;20047;-83
2022/01/01 01:01:41;;;;;;;57.43;22.67;;;11.40;99.90;;;;;;5104786;27;20125;-84
2022/01/01 01:04:07;;;;;;;45.50;20.67;;;11.40;99.90;;;;;;5085687;27;20077;-84
2022/01/01 01:06:33;;;;;;;49.83;22.40;;;11.40;99.90;;;;;;5074536;27;20047;-84
2022/01/01 01:09:00;;;;;;;55.43;21.97;;;11.40;99.90;;;;;;5097537;28;20062;-84
2022/01/01 01:11:27;;;;;;;50.07;21.47;;;11.40;99.90;;;;;;5080886;28;20067;-84
2022/01/01 01:14:07;;;;;;;50.27;19.97;;;11.40;99.90;;;;;;5077623;28;20035;-84
2022/01/01 01:16:33;;;;;;;53.50;20.20;;;11.40;99.90;;;;;;5082930;28;20043;-84
2022/01/01 01:18:59;;;;;;;51.43;20.40;;;11.40;99.90;;;;;;5050643;28;20062;-84
2022/01/01 01:21:25;;;;;;;48.63;20.40;;;11.40;99.90;;;;;;5064840;28;20440;-84
2022/01/01 01:23:51;;;;;;;43.90;20.23;;;11.40;99.90;;;;;;5089575;28;20109;-83
2022/01/01 01:26:17;;;;;;;52.57;20.30;;;11.40;99.90;;;;;;5065420;28;20039;-82
2022/01/01 01:28:49;;;;;;;45.97;20.43;;;11.40;99.90;;;;;;5091827;28;20442;-84
2022/01/01 01:31:16;;;;;;;;;;;11.40;99.90;;;;;;5081420;27;20044;-84
2022/01/01 01:33:43;;;;;;;56.40;21.30;;;11.40;99.90;;;;;;5120173;28;19919;-85
2022/01/01 01:36:10;;;;;;;55.00;21.80;;;11.30;99.90;;;;;;5114789;28;20118;-83
2022/01/01 01:38:36;;;;;;;62.70;23.07;;;11.40;99.90;;;;;;5069625;27;20043;-85
2022/01/01 01:41:04;;;;;;;54.40;23.17;;;11.30;99.90;;;;;;5075620;27;20092;-84
2022/01/01 01:43:30;;;;;;;48.83;20.63;;;11.30;99.90;;;;;;5097243;28;20126;-84
2022/01/01 01:45:57;;;;;;;47.17;22.63;;;11.40;99.90;;;;;;5067529;27;20077;-84
2022/01/01 01:48:23;;;;;;;58.70;22.13;;;11.40;99.90;;;;;;5079284;27;20066;-85
2022/01/01 01:50:49;;;;;;;56.47;23.70;;;11.30;99.90;;;;;;5122061;27;20043;-84
2022/01/01 01:53:15;;;;;;;63.37;24.17;;;11.40;99.90;;;;;;5081772;27;20096;-84
2022/01/01 01:55:42;;;;;;;54.13;26.93;;;11.40;99.90;;;;;;5062815;28;20047;-83
2022/01/01 01:58:08;;;;;;;59.73;26.70;;;11.40;99.90;;;;;;5082366;27;20051;-83
2022/01/01 02:03:09;;;;;;;76.18;33.25;;;11.30;99.90;;;;;;5097813;27;20071;-83
2022/01/01 02:05:38;;;;;;;77.67;34.00;;;11.30;99.90;;;;;;5062967;28;20043;-84
2022/01/01 02:08:06;;;;;;;72.33;33.80;;;11.30;99.90;;;;;;5059343;27;20047;-83
2022/01/01 02:10:35;;;;;;;75.73;35.17;;;11.30;99.90;;;;;;5113142;27;20498;-83
2022/01/01 02:13:10;;;;;;;75.63;37.07;;;11.30;99.90;;;;;;5111790;28;20102;-84
2022/01/01 02:16:00;;;;;;;76.87;37.40;;;11.30;99.90;;;;;;5096794;28;20047;-83
2022/01/01 02:18:22;;;;;;;76.67;36.23;;;11.30;99.90;;;;;;5094497;27;20050;-84
2022/01/01 02:20:51;;;;;;;78.13;36.83;;;11.30;99.90;;;;;;5066499;27;20048;-83
2022/01/01 02:23:18;;;;;;;76.97;35.30;;;11.30;99.90;;;;;;5100119;27;20490;-84
2022/01/01 02:25:45;;;;;;;80.73;37.43;;;11.20;99.90;;;;;;5124304;27;20039;-86
2022/01/01 02:28:11;;;;;;;70.50;36.23;;;11.30;99.90;;;;;;5074829;28;20112;-84
2022/01/01 02:30:37;;;;;;;76.20;35.80;;;11.20;99.90;;;;;;5102581;28;20055;-83
2022/01/01 02:33:03;;;;;;;72.43;35.23;;;11.20;99.90;;;;;;5104806;27;20570;-84
2022/01/01 02:35:29;;;;;;;83.80;37.10;;;11.20;99.90;;;;;;5081969;28;20051;-84
2022/01/01 02:37:55;;;;;;;84.60;36.57;;;11.20;99.90;;;;;;5070618;27;20040;-83
2022/01/01 02:40:20;;;;;;;84.63;36.13;;;11.20;99.90;;;;;;5105273;27;20035;-83
2022/01/01 02:42:46;;;;;;;80.27;37.93;;;11.20;99.90;;;;;;5102449;27;20043;-83
2022/01/01 02:45:14;;;;;;;76.63;35.93;;;11.20;99.90;;;;;;5063147;27;20052;-84
2022/01/01 02:47:41;;;;;;;79.80;36.37;;;11.20;99.90;;;;;;5084959;27;20107;-83
2022/01/01 02:50:07;;;;;;;77.93;36.37;;;11.20;99.90;;;;;;5099505;27;20054;-82
2022/01/01 02:52:33;;;;;;;81.93;37.47;;;11.10;99.90;;;;;;5081323;28;20511;-83
2022/01/01 02:54:59;;;;;;;84.20;38.90;;;11.10;99.90;;;;;;5094076;27;20125;-83
2022/01/01 02:57:25;;;;;;;77.27;36.93;;;11.10;99.90;;;;;;5088866;27;20044;-83
2022/01/01 02:59:51;;;;;;;77.20;34.77;;;11.20;99.90;;;;;;5091773;28;20110;-84
2022/01/01 03:02:16;;;;;;;85.97;39.60;;;11.20;99.90;;;;;;5086670;27;20047;-84
2022/01/01 03:04:42;;;;;;;78.33;36.93;;;11.20;99.90;;;;;;5066958;28;20044;-84
2022/01/01 03:07:08;;;;;;;78.50;37.67;;;11.20;99.90;;;;;;5094891;28;20634;-84
2022/01/01 03:09:36;;;;;;;86.83;39.00;;;11.20;99.90;;;;;;5071651;28;20039;-83
2022/01/01 03:12:10;;;;;;;87.83;40.13;;;11.20;99.90;;;;;;5052925;28;20043;-83
2022/01/01 03:14:37;;;;;;;78.50;38.00;;;11.20;99.90;;;;;;5073342;27;20086;-83
2022/01/01 03:17:04;;;;;;;83.57;38.00;;;11.20;99.90;;;;;;5077231;27;20047;-82
2022/01/01 03:19:30;;;;;;;76.20;37.07;;;11.20;99.90;;;;;;5102422;27;20073;-83
2022/01/01 03:21:56;;;;;;;84.60;38.47;;;11.20;99.90;;;;;;5065596;28;20043;-84
2022/01/01 03:24:22;;;;;;;77.70;39.27;;;11.20;99.90;;;;;;5059957;28;20067;-84
2022/01/01 03:26:48;;;;;;;80.03;37.20;;;11.20;99.90;;;;;;5077112;27;20120;-83
2022/01/01 03:29:14;;;;;;;89.20;38.53;;;11.20;99.90;;;;;;5119075;27;20094;-83
2022/01/01 03:31:39;;;;;;;86.50;39.40;;;11.20;99.90;;;;;;5091913;27;20035;-83
2022/01/01 03:34:05;;;;;;;88.87;39.67;;;11.20;99.90;;;;;;5094819;28;20123;-84
2022/01/01 03:36:31;;;;;;;84.80;39.07;;;11.20;99.90;;;;;;5065480;27;20565;-84
2022/01/01 03:38:57;;;;;;;91.73;41.20;;;11.20;99.90;;;;;;5075040;27;20041;-83
2022/01/01 03:41:24;;;;;;;76.43;39.67;;;11.20;99.90;;;;;;5106612;27;20047;-84
2022/01/01 03:43:50;;;;;;;90.77;42.33;;;11.20;99.90;;;;;;5058136;28;20054;-83
2022/01/01 03:46:15;;;;;;;87.00;40.27;;;11.20;99.90;;;;;;5057166;28;20051;-82
2022/01/01 03:48:41;;;;;;;91.90;43.23;;;11.20;99.90;;;;;;5062572;27;20066;-83
2022/01/01 03:51:07;;;;;;;95.93;44.47;;;11.20;99.90;;;;;;5094979;27;20032;-83
2022/01/01 03:53:33;;;;;;;91.67;42.87;;;11.20;99.90;;;;;;5101325;28;20086;-83
2022/01/01 03:55:59;;;;;;;85.90;43.47;;;11.20;99.90;;;;;;5078045;27;20040;-84
2022/01/01 03:58:25;;;;;;;91.17;41.77;;;11.20;99.90;;;;;;5075738;28;20044;-83
2022/01/01 04:00:51;;;;;;;89.17;45.77;;;11.20;99.90;;;;;;5082226;28;20097;-83
2022/01/01 04:03:17;;;;;;;100.00;48.77;;;11.30;99.90;;;;;;5075124;28;20055;-84
2022/01/01 04:05:44;;;;;;;99.83;50.03;;;11.30;99.90;;;;;;5094079;27;20120;-83
2022/01/01 04:08:11;;;;;;;97.80;49.43;;;11.20;99.90;;;;;;5075626;27;20043;-85
2022/01/01 04:10:38;;;;;;;106.43;52.83;;;11.20;99.90;;;;;;5073987;28;20048;-84
2022/01/01 04:13:05;;;;;;;98.50;52.50;;;11.20;99.90;;;;;;5079408;28;20036;-84
2022/01/01 04:15:32;;;;;;;108.70;52.87;;;11.30;99.90;;;;;;5076402;27;20043;-84
2022/01/01 04:18:06;;;;;;;102.83;52.97;;;11.20;99.90;;;;;;5088205;27;20039;-82
2022/01/01 04:20:32;;;;;;;109.40;56.63;;;11.20;99.90;;;;;;5103056;27;20099;-84
2022/01/01 04:22:58;;;;;;;111.90;57.10;;;11.20;99.90;;;;;;5069643;28;20075;-83
2022/01/01 04:25:24;;;;;;;106.63;56.40;;;11.20;99.90;;;;;;5094932;28;20074;-83
2022/01/01 04:27:51;;;;;;;113.00;58.03;;;11.20;99.90;;;;;;5072993;28;20047;-83
2022/01/01 04:30:17;;;;;;;119.83;58.13;;;11.20;99.90;;;;;;5099259;27;20058;-84
2022/01/01 04:32:43;;;;;;;111.47;56.73;;;11.20;99.90;;;;;;5067127;27;20062;-84
2022/01/01 04:35:09;;;;;;;105.23;58.43;;;11.20;99.90;;;;;;5092643;27;20039;-84
2022/01/01 04:37:35;;;;;;;113.80;60.67;;;11.20;99.90;;;;;;5070175;27;20043;-84
2022/01/01 04:40:02;;;;;;;120.57;61.10;;;11.20;99.90;;;;;;5076539;28;20040;-85
2022/01/01 04:42:29;;;;;;;121.00;60.53;;;11.20;99.90;;;;;;5081294;27;20073;-83
2022/01/01 04:44:55;;;;;;;116.83;60.83;;;11.20;99.90;;;;;;5095177;27;20035;-81
2022/01/01 04:47:21;;;;;;;110.60;56.97;;;11.20;99.90;;;;;;5098375;27;20043;-83
2022/01/01 04:49:47;;;;;;;108.63;57.13;;;11.20;99.90;;;;;;5088450;27;20139;-83
2022/01/01 04:52:13;;;;;;;114.93;56.37;;;11.20;99.90;;;;;;5093379;28;20047;-83
2022/01/01 04:54:41;;;;;;;112.27;57.43;;;11.20;99.90;;;;;;5088621;28;20043;-83
2022/01/01 04:57:08;;;;;;;109.27;57.57;;;11.20;99.90;;;;;;5075035;28;20074;-82
2022/01/01 04:59:38;;;;;;;113.00;55.37;;;11.20;99.90;;;;;;5099364;28;20052;-82
2022/01/01 05:02:04;;;;;;;119.37;58.50;;;11.20;99.90;;;;;;5115208;27;20047;-84
2022/01/01 05:04:30;;;;;;;111.30;56.77;;;11.20;99.90;;;;;;5076892;28;20133;-83
2022/01/01 05:06:56;;;;;;;106.67;56.07;;;11.20;99.90;;;;;;5095598;28;20038;-83
2022/01/01 05:09:22;;;;;;;104.00;55.83;;;11.20;99.90;;;;;;5091861;27;20050;-85
2022/01/01 05:11:48;;;;;;;117.43;60.17;;;11.20;99.90;;;;;;5064818;27;20047;-84
2022/01/01 05:14:15;;;;;;;107.70;55.77;;;11.20;99.90;;;;;;5090639;28;20180;-84
2022/01/01 05:16:41;;;;;;;105.43;57.10;;;11.20;99.90;;;;;;5076924;27;20449;-84
2022/01/01 05:19:07;;;;;;;120.50;58.43;;;11.20;99.90;;;;;;5096929;28;20035;-83
2022/01/01 05:21:35;;;;;;;118.57;58.90;;;11.20;99.90;;;;;;5083135;28;20508;-84
2022/01/01 05:24:04;;;;;;;109.57;55.50;;;11.10;99.90;;;;;;5072577;28;20046;-84
2022/01/01 05:26:30;;;;;;;98.27;53.07;;;11.20;99.90;;;;;;5083349;28;20089;-83
2022/01/01 05:28:55;;;;;;;117.93;57.53;;;11.20;99.90;;;;;;5087621;28;20069;-84
2022/01/01 05:31:21;;;;;;;106.37;55.30;;;11.20;99.90;;;;;;5112216;28;20039;-84
2022/01/01 05:33:51;;;;;;;104.70;54.83;;;11.20;99.90;;;;;;5069850;28;20039;-83
2022/01/01 05:36:18;;;;;;;114.40;56.00;;;11.20;99.90;;;;;;5095201;28;20071;-83
2022/01/01 05:38:45;;;;;;;114.40;56.60;;;11.20;99.90;;;;;;5088617;28;20149;-83
2022/01/01 05:41:11;;;;;;;106.47;53.07;;;11.20;99.90;;;;;;5078722;28;20107;-83
2022/01/01 05:43:37;;;;;;;116.07;54.87;;;11.20;99.90;;;;;;5052078;28;20078;-83
2022/01/01 05:46:03;;;;;;;108.13;55.63;;;11.20;99.90;;;;;;5073929;28;20043;-84
2022/01/01 05:48:29;;;;;;;107.83;53.63;;;11.20;99.90;;;;;;5083644;28;20076;-85
2022/01/01 05:50:55;;;;;;;105.13;52.57;;;11.20;99.90;;;;;;5097471;28;20047;-82
2022/01/01 05:53:20;;;;;;;113.97;52.43;;;11.30;99.90;;;;;;5099238;28;20053;-83
2022/01/01 05:55:47;;;;;;;102.80;49.50;;;11.20;99.90;;;;;;5089418;28;20176;-83
2022/01/01 05:58:13;;;;;;;94.57;47.10;;;11.30;99.90;;;;;;5069622;28;20062;-83
2022/01/01 06:00:39;;;;;;;95.53;47.27;;;11.20;99.90;;;;;;5107327;28;20074;-84
2022/01/01 06:03:05;;;;;;;99.53;46.67;;;11.20;99.90;;;;;;5108469;28;20047;-83
2022/01/01 06:05:31;;;;;;;96.03;48.40;;;11.20;99.90;;;;;;5090419;28;20058;-84
2022/01/01 06:07:58;;;;;;;91.17;43.30;;;11.20;99.90;;;;;;5078916;28;20126;-82
2022/01/01 06:10:24;;;;;;;85.87;42.50;;;11.20;99.90;;;;;;5072662;28;20058;-82
2022/01/01 06:12:51;;;;;;;90.77;40.20;;;11.20;99.90;;;;;;5105099;28;20086;-83
2022/01/01 06:15:17;;;;;;;86.47;39.97;;;11.20;99.90;;;;;;5080806;28;20103;-83
2022/01/01 06:17:43;;;;;;;87.87;40.47;;;11.20;99.90;;;;;;5088381;27;20051;-83
2022/01/01 06:20:09;;;;;;;93.13;41.17;;;11.20;99.90;;;;;;5069791;27;20046;-85
2022/01/01 06:22:35;;;;;;;87.97;39.63;;;11.20;99.90;;;;;;5087685;27;20585;-84
2022/01/01 06:25:02;;;;;;;94.07;39.63;;;11.20;99.90;;;;;;5067419;28;20070;-84
2022/01/01 06:27:27;;;;;;;81.60;35.67;;;11.20;99.90;;;;;;5113083;27;20043;-85
2022/01/01 06:29:54;;;;;;;76.47;35.37;;;11.20;99.90;;;;;;5110670;27;20122;-83
2022/01/01 06:32:19;;;;;;;77.13;34.93;;;11.20;99.90;;;;;;5090641;27;20106;-84
2022/01/01 06:34:45;;;;;;;79.30;34.77;;;11.20;99.90;;;;;;5067270;28;20043;-83
2022/01/01 06:37:11;;;;;;;79.80;35.90;;;11.30;99.90;;;;;;5127359;27;20051;-84
2022/01/01 06:39:37;;;;;;;77.67;32.23;;;11.20;99.90;;;;;;5084163;27;20051;-84
2022/01/01 06:42:03;;;;;;;73.13;31.53;;;11.20;99.90;;;;;;5072087;27;20457;-83
2022/01/01 06:44:29;;;;;;;76.83;32.77;;;11.20;99.90;;;;;;5073801;28;20464;-83
2022/01/01 06:46:54;;;;;;;77.30;31.70;;;11.20;99.90;;;;;;5084303;27;20106;-84
2022/01/01 06:49:20;;;;;;;72.90;31.23;;;11.20;99.90;;;;;;5095040;28;20044;-85
2022/01/01 06:51:46;;;;;;;72.47;29.93;;;11.20;99.90;;;;;;5116482;27;20191;-83
2022/01/01 06:54:12;;;;;;;68.00;27.97;;;11.30;99.90;;;;;;5091573;27;20143;-85
2022/01/01 06:56:38;;;;;;;76.40;29.90;;;11.30;99.90;;;;;;5078810;27;20047;-82
2022/01/01 06:59:03;;;;;;;67.70;28.50;;;11.30;99.90;;;;;;5066584;27;20052;-84
2022/01/01 07:01:29;;;;;;;73.27;28.03;;;11.30;99.90;;;;;;5101339;27;20518;-84
2022/01/01 07:03:56;;;;;;;76.37;29.40;;;11.30;99.90;;;;;;5077139;27;20039;-83
2022/01/01 07:06:21;;;;;;;73.20;27.90;;;11.30;99.90;;;;;;5082368;27;20071;-84
2022/01/01 07:08:47;;;;;;;70.27;27.83;;;11.30;99.90;;;;;;5095272;28;20058;-84
2022/01/01 07:11:13;;;;;;;67.40;27.53;;;11.30;99.90;;;;;;5081353;27;20112;-83
2022/01/01 07:13:39;;;;;;;70.63;26.67;;;11.30;99.90;;;;;;5092655;27;20051;-83
2022/01/01 07:16:06;;;;;;;75.00;29.93;;;11.30;99.90;;;;;;5075274;27;20039;-83
2022/01/01 07:18:32;;;;;;;67.00;27.20;;;11.30;99.90;;;;;;5090765;27;20069;-83
2022/01/01 07:20:58;;;;;;;67.80;28.90;;;11.40;99.90;;;;;;5110095;27;20104;-83
2022/01/01 07:23:24;;;;;;;72.77;29.87;;;11.30;99.90;;;;;;5098789;28;20048;-83
2022/01/01 07:25:49;;;;;;;77.63;30.47;;;11.40;99.90;;;;;;5084176;27;20270;-82
2022/01/01 07:28:16;;;;;;;66.83;29.00;;;11.40;99.90;;;;;;5082455;27;20043;-82
2022/01/01 07:30:44;;;;;;;69.10;27.87;;;11.40;99.90;;;;;;5105167;27;20051;-83
2022/01/01 07:33:12;;;;;;;73.60;29.43;;;11.40;99.90;;;;;;5079053;27;20110;-83
2022/01/01 07:35:38;;;;;;;71.27;29.77;;;11.40;99.90;;;;;;5100154;27;20031;-82
2022/01/01 07:38:04;;;;;;;70.87;28.90;;;11.40;99.90;;;;;;5085046;28;20036;-82
2022/01/01 07:40:32;;;;;;;77.23;28.90;;;11.40;99.90;;;;;;5069872;27;20089;-82
2022/01/01 07:42:58;;;;;;;70.53;27.93;;;11.40;99.90;;;;;;5109654;27;20043;-82
2022/01/01 07:45:24;;;;;;;76.13;28.77;;;11.40;99.90;;;;;;5094078;28;20044;-81
2022/01/01 07:47:49;;;;;;;75.07;27.30;;;11.40;99.90;;;;;;5096037;27;20058;-82
2022/01/01 07:50:15;;;;;;;68.27;27.20;;;11.40;99.90;;;;;;5059158;27;20042;-85
2022/01/01 07:52:42;;;;;;;66.47;25.43;;;11.50;99.90;;;;;;5075279;27;20042;-81
2022/01/01 07:55:08;;;;;;;62.73;26.17;;;11.50;99.90;;;;;;5087510;27;20073;-82
2022/01/01 07:57:34;;;;;;;61.03;26.00;;;11.50;99.90;;;;;;5097121;28;20092;-81
2022/01/01 08:00:00;;;;;;;63.27;26.70;;;11.50;99.90;;;;;;5088021;28;20525;-82
2022/01/01 08:02:26;;;;;;;64.33;25.77;;;11.50;99.90;;;;;;5103556;28;20159;-82
2022/01/01 08:04:52;;;;;;;59.53;26.00;;;11.60;99.90;;;;;;5067608;28;20668;-82
2022/01/01 08:07:17;;;;;;;57.23;25.27;;;11.60;99.90;;;;;;5077421;27;20045;-82
2022/01/01 08:09:43;;;;;;;63.97;26.30;;;11.60;99.90;;;;;;5094963;28;20043;-81
2022/01/01 08:12:09;;;;;;;63.70;27.53;;;11.60;99.90;;;;;;5066475;28;20075;-81
2022/01/01 08:14:35;;;;;;;74.73;29.97;;;11.60;99.90;;;;;;5100718;28;20468;-82
2022/01/01 08:17:04;;;;;;;65.27;25.57;;;11.60;99.90;;;;;;5056422;28;20111;-82
2022/01/01 08:19:30;;;;;;;62.33;25.07;;;11.60;99.90;;;;;;5110526;28;20051;-82
2022/01/01 08:21:57;;;;;;;61.17;25.93;;;11.60;99.90;;;;;;5059870;27;20070;-83
2022/01/01 08:24:24;;;;;;;64.20;25.17;;;11.60;99.90;;;;;;5093720;28;20113;-81
2022/01/01 08:26:50;;;;;;;58.17;24.53;;;11.60;99.90;;;;;;5096621;28;20682;-81
2022/01/01 08:29:17;;;;;;;58.87;25.50;;;11.60;99.90;;;;;;5097378;27;20110;-81
2022/01/01 08:31:43;;;;;;;60.97;24.90;;;11.60;99.90;;;;;;5074488;28;20043;-82
2022/01/01 08:34:09;;;;;;;63.87;27.13;;;11.60;99.90;;;;;;5094464;28;20095;-81
2022/01/01 08:36:36;;;;;;;64.00;26.30;;;11.60;99.90;;;;;;5109463;27;20107;-82
2022/01/01 08:39:05;;;;;;;71.03;27.80;;;11.60;99.90;;;;;;5091061;28;20047;-80
2022/01/01 08:41:31;;;;;;;62.53;28.60;;;11.60;99.90;;;;;;5107542;27;20110;-81
2022/01/01 08:43:57;;;;;;;66.63;27.73;;;11.70;99.90;;;;;;5094213;27;20051;-83
2022/01/01 08:46:23;;;;;;;65.83;27.87;;;11.60;99.90;;;;;;5081310;27;20117;-92
2022/01/01 08:48:48;;;;;;;63.57;29.67;;;11.60;99.90;;;;;;5064711;27;20498;-86
2022/01/01 08:51:22;;;;;;;69.33;28.30;;;11.60;99.90;;;;;;5090981;27;20142;-79
2022/01/01 08:53:49;;;;;;;68.43;29.60;;;11.60;99.90;;;;;;5096686;27;20042;-81
2022/01/01 08:56:15;;;;;;;69.33;30.60;;;11.60;99.90;;;;;;5063932;28;20052;-79
2022/01/01 08:58:41;;;;;;;70.67;29.33;;;11.60;99.90;;;;;;5079299;27;20035;-83
2022/01/01 09:01:08;;;;;;;69.27;29.83;;;11.60;99.90;;;;;;5109820;28;20062;-83
2022/01/01 09:03:35;;;;;;;67.83;30.87;;;11.60;99.90;;;;;;5091054;28;20449;-81
2022/01/01 09:06:05;;;;;;;72.33;30.93;;;11.60;99.90;;;;;;5111458;27;20533;-86
2022/01/01 09:08:32;;;;;;;77.87;32.60;;;11.60;99.90;;;;;;5091553;28;20046;-83
2022/01/01 09:10:59;;;;;;;71.23;31.73;;;11.60;99.90;;;;;;5095931;27;20070;-85
2022/01/01 09:13:25;;;;;;;82.30;33.40;;;11.60;99.90;;;;;;5092517;28;20130;-84
2022/01/01 09:15:52;;;;;;;75.73;32.90;;;11.60;99.90;;;;;;5075407;28;20082;-84
2022/01/01 09:18:17;;;;;;;66.73;31.20;;;11.70;99.90;;;;;;5067706;28;20491;-84
2022/01/01 09:20:43;;;;;;;66.40;31.87;;;11.70;99.90;;;;;;5088330;28;20039;-84
2022/01/01 09:23:09;;;;;;;67.07;32.37;;;11.70;99.90;;;;;;5074192;28;20035;-83
2022/01/01 09:25:36;;;;;;;72.33;32.80;;;11.70;99.90;;;;;;5061731;28;20066;-82
2022/01/01 09:28:02;;;;;;;64.53;30.50;;;11.80;99.90;;;;;;5114605;28;20058;-84
2022/01/01 09:30:28;;;;;;;66.70;32.70;;;11.80;99.90;;;;;;5057985;28;20056;-83
2022/01/01 09:32:54;;;;;;;65.73;30.17;;;11.80;99.90;;;;;;5056440;28;20629;-84
2022/01/01 09:35:19;;;;;;;72.10;30.87;;;11.90;99.90;;;;;;5073831;28;20051;-84
2022/01/01 09:37:45;;;;;;;63.00;30.97;;;11.90;99.90;;;;;;5072771;28;20032;-84
2022/01/01 09:40:11;;;;;;;62.73;27.87;;;11.90;99.90;;;;;;5056464;28;20047;-83
2022/01/01 09:42:39;;;;;;;64.23;28.47;;;12.00;99.90;;;;;;5090401;28;20052;-83
2022/01/01 09:45:09;;;;;;;55.43;27.80;;;12.00;99.90;;;;;;5087358;28;20100;-84
2022/01/01 09:47:37;;;;;;;58.43;28.00;;;12.00;99.90;;;;;;5066584;28;20459;-84
2022/01/01 09:50:06;;;;;;;55.67;26.47;;;12.00;99.90;;;;;;5070951;28;20129;-83
2022/01/01 09:52:33;;;;;;;55.70;25.67;;;12.10;99.90;;;;;;5075900;28;20503;-83
2022/01/01 09:54:59;;;;;;;51.70;26.40;;;12.10;99.90;;;;;;5072425;28;20068;-83
2022/01/01 09:57:25;;;;;;;54.87;26.57;;;12.10;99.90;;;;;;5079204;28;20044;-83
2022/01/01 09:59:51;;;;;;;54.73;26.10;;;12.10;99.90;;;;;;5064344;28;20040;-83
2022/01/01 10:02:17;;;;;;;53.63;27.10;;;12.10;99.90;;;;;;5074112;28;20224;-82
2022/01/01 10:04:45;;;;;;;52.90;24.67;;;12.10;99.90;;;;;;5060330;28;20109;-83
2022/01/01 10:07:12;;;;;;;46.97;24.17;;;12.10;99.90;;;;;;5074489;28;20051;-83
2022/01/01 10:09:39;;;;;;;58.33;24.73;;;12.20;99.90;;;;;;5072157;28;20047;-83
2022/01/01 10:12:09;;;;;;;50.43;24.10;;;12.20;99.90;;;;;;5076957;28;20520;-83
2022/01/01 10:14:39;;;;;;;55.27;24.23;;;12.20;99.90;;;;;;5074131;28;20068;-83
2022/01/01 10:17:23;;;;;;;45.33;22.80;;;12.20;99.90;;;;;;5096911;28;20134;-83
2022/01/01 10:19:53;;;;;;;44.67;22.63;;;12.20;99.90;;;;;;5084132;28;20071;-84
2022/01/01 10:22:23;;;;;;;45.07;22.43;;;12.20;99.90;;;;;;5067924;28;20040;-83
2022/01/01 10:28:02;;;;;;;42.90;21.00;;;12.30;99.90;;;;;;5087148;28;20135;-84
2022/01/01 10:30:39;;;;;;;43.42;20.60;;;12.30;99.90;;;;;;5082389;28;20040;-84
2022/01/01 10:33:17;;;;;;;46.77;20.33;;;12.30;99.90;;;;;;5090185;28;20273;-83
2022/01/01 10:35:50;;;;;;;39.40;18.77;;;12.30;99.90;;;;;;5070065;28;20047;-83
2022/01/01 10:38:26;;;;;;;34.90;17.60;;;12.30;99.90;;;;;;5086465;28;20045;-84
2022/01/01 10:41:04;;;;;;;38.93;18.70;;;12.30;99.90;;;;;;5072162;28;20130;-83
2022/01/01 10:43:41;;;;;;;36.57;16.70;;;12.30;99.90;;;;;;5081632;28;20509;-84
2022/01/01 10:46:19;;;;;;;34.33;16.80;;;12.30;99.90;;;;;;5089909;28;20472;-84
2022/01/01 10:51:14;;;;;;;34.03;15.77;;;12.30;99.90;;;;;;5088467;28;20044;-85
2022/01/01 10:53:39;;;;;;;32.90;15.87;;;12.40;99.90;;;;;;5072308;28;20135;-84
2022/01/01 10:56:18;;;;;;;29.93;15.67;;;12.40;99.90;;;;;;5058274;28;20110;-85
2022/01/01 10:58:44;;;;;;;31.20;15.73;;;12.40;99.90;;;;;;5072089;28;20142;-84
2022/01/01 11:01:10;;;;;;;31.50;14.57;;;12.40;99.90;;;;;;5074746;28;20515;-85
2022/01/01 11:03:41;;;;;;;28.37;13.23;;;12.40;99.90;;;;;;5073561;28;20273;-82
2022/01/01 11:06:10;;;;;;;25.05;12.30;;;12.50;99.90;;;;;;5078811;28;20082;-86
2022/01/01 11:08:40;;;;;;;26.57;13.40;;;12.50;99.90;;;;;;5065559;28;20537;-85
2022/01/01 11:11:06;;;;;;;21.77;12.60;;;12.50;99.90;;;;;;5074884;28;20040;-83
2022/01/01 11:13:33;;;;;;;25.03;12.27;;;12.60;99.90;;;;;;5055872;28;20089;-84
2022/01/01 11:16:00;;;;;;;18.13;11.63;;;12.60;99.90;;;;;;5078061;28;20126;-85
2022/01/01 11:18:27;;;;;;;23.97;12.40;;;12.60;99.90;;;;;;5071473;28;20043;-86
2022/01/01 11:20:53;;;;;;;22.57;11.87;;;12.70;99.90;;;;;;5059460;28;20118;-85
2022/01/01 11:23:20;;;;;;;29.47;11.83;;;12.70;99.90;;;;;;5083262;28;20051;-83
2022/01/01 11:25:46;;;;;;;21.83;11.50;;;12.60;99.90;;;;;;5084034;28;20070;-85
2022/01/01 11:28:17;;;;;;;24.13;11.27;;;12.70;99.90;;;;;;5074173;28;20052;-85
2022/01/01 11:31:08;;;;;;;22.13;11.20;;;12.70;99.90;;;;;;5078737;28;20078;-85
2022/01/01 11:33:41;;;;;;;25.35;11.52;;;12.70;99.90;;;;;;5071836;28;20108;-85
2022/01/01 11:36:18;;;;;;;23.17;10.87;;;12.60;99.90;;;;;;5078167;28;20044;-85
2022/01/01 11:38:44;;;;;;;26.17;10.80;;;12.70;99.90;;;;;;5075609;28;20047;-84
2022/01/01 11:41:12;;;;;;;26.10;10.97;;;12.60;99.90;;;;;;5054215;28;20044;-85
2022/01/01 11:43:40;;;;;;;21.63;10.30;;;12.60;99.90;;;;;;5065284;28;20058;-85
2022/01/01 11:46:12;;;;;;;22.80;10.93;;;12.60;99.90;;;;;;5076875;28;20048;-85
2022/01/01 11:48:45;;;;;;;19.38;9.43;;;12.60;99.90;;;;;;5068849;28;20044;-84
2022/01/01 11:51:35;;;;;;;23.17;10.67;;;12.60;99.90;;;;;;5064942;28;20104;-84
2022/01/01 11:54:19;;;;;;;20.23;9.90;;;12.60;99.90;;;;;;5064593;28;20298;-84
2022/01/01 11:56:51;;;;;;;20.83;9.83;;;12.60;99.90;;;;;;5070496;28;20146;-84
2022/01/01 11:59:28;;;;;;;19.23;9.80;;;12.50;99.90;;;;;;5070916;28;20075;-84
2022/01/01 12:02:05;;;;;;;21.30;9.73;;;12.60;99.90;;;;;;5067256;28;20044;-84
2022/01/01 12:04:42;;;;;;;19.27;9.30;;;12.50;99.90;;;;;;5086613;28;20044;-84
2022/01/01 12:07:12;;;;;;;18.40;9.23;;;12.50;99.90;;;;;;5050913;28;20052;-84
2022/01/01 12:10:01;;;;;;;21.57;9.43;;;12.60;99.90;;;;;;5067190;28;20112;-83
2022/01/01 12:12:40;;;;;;;22.10;8.70;;;12.60;99.90;;;;;;5043386;28;20495;-84
2022/01/01 12:15:20;;;;;;;12.97;8.17;;;12.60;99.90;;;;;;5062903;28;20052;-83
2022/01/01 12:17:49;;;;;;;14.93;8.73;;;12.60;99.90;;;;;;5070293;28;20073;-83
2022/01/01 12:20:18;;;;;;;16.93;8.40;;;12.60;99.90;;;;;;5083839;28;20545;-84
2022/01/01 12:22:45;;;;;;;17.33;9.47;;;12.60;99.90;;;;;;5050776;28;20040;-84
2022/01/01 12:25:17;;;;;;;15.93;8.80;;;12.60;99.90;;;;;;5052583;28;20048;-83
2022/01/01 12:27:47;;;;;;;19.90;8.80;;;12.50;99.90;;;;;;5069420;28;20040;-84
2022/01/01 12:30:14;;;;;;;15.47;7.90;;;12.50;99.90;;;;;;5072862;28;20048;-84
2022/01/01 12:32:45;;;;;;;17.23;8.43;;;12.50;99.90;;;;;;5096398;28;20406;-85
2022/01/01 12:35:17;;;;;;;15.77;7.63;;;12.60;99.90;;;;;;5068474;28;20055;-82